SAS1627 EKCH-EDDL
Flight info
| Callsign | SAS1627 |
|---|---|
| Flight time | N/A |
| Altitude | 38000 |
| Route | NEXEN T503 GIMRU DCT MICOS DCT KEGAB DCT DENOL/N0381F260 T851 HALME HALME1A |
| Aircraft | A320/M-SDE3FGHIJ1RWXYZ/ALB1 |
Departure
| Time | N/A |
|---|---|
| Airport | Copenhagen Kastrup Airport (EKCH) |
Arrival
| Time | 2026-05-04 19:01 |
|---|---|
| Airport | Düsseldorf Airport (EDDL) |
| Time | Latitude | Longitude | Altitude | Speed | Heading |
|---|---|---|---|---|---|
| 2026-05-04 18:11 | 54.36362 | 11.07526 | 34666 ft | 398 kts | 220° |
| 2026-05-04 18:11 | 54.34091 | 11.04782 | 34945 ft | 399 kts | 219° |
| 2026-05-04 18:11 | 54.31853 | 11.02088 | 35198 ft | 400 kts | 219° |
| 2026-05-04 18:11 | 54.29598 | 10.99383 | 35456 ft | 401 kts | 219° |
| 2026-05-04 18:12 | 54.27302 | 10.96657 | 35718 ft | 402 kts | 219° |
| 2026-05-04 18:12 | 54.24993 | 10.93933 | 35959 ft | 403 kts | 218° |
| 2026-05-04 18:12 | 54.22682 | 10.91212 | 36205 ft | 404 kts | 218° |
| 2026-05-04 18:12 | 54.20365 | 10.88484 | 36454 ft | 405 kts | 218° |
| 2026-05-04 18:13 | 54.18048 | 10.85751 | 36701 ft | 405 kts | 218° |
| 2026-05-04 18:13 | 54.15727 | 10.83016 | 36933 ft | 406 kts | 218° |
| 2026-05-04 18:13 | 54.11061 | 10.77534 | 37391 ft | 408 kts | 218° |
| 2026-05-04 18:14 | 54.08725 | 10.74797 | 37616 ft | 408 kts | 218° |
| 2026-05-04 18:14 | 54.06384 | 10.72055 | 37841 ft | 409 kts | 218° |
| 2026-05-04 18:14 | 54.04034 | 10.69306 | 37958 ft | 411 kts | 217° |
| 2026-05-04 18:15 | 53.94560 | 10.58287 | 37976 ft | 413 kts | 217° |
| 2026-05-04 18:16 | 53.89805 | 10.52783 | 37983 ft | 413 kts | 217° |
| 2026-05-04 18:16 | 53.85052 | 10.47291 | 37976 ft | 414 kts | 217° |
| 2026-05-04 18:17 | 53.77916 | 10.39054 | 37962 ft | 414 kts | 217° |
| 2026-05-04 18:18 | 53.70749 | 10.30836 | 37978 ft | 415 kts | 217° |
| 2026-05-04 18:18 | 53.65962 | 10.25376 | 37983 ft | 416 kts | 217° |
| 2026-05-04 18:19 | 53.58767 | 10.17176 | 37988 ft | 416 kts | 217° |
| 2026-05-04 18:19 | 53.53971 | 10.11721 | 37980 ft | 416 kts | 217° |
| 2026-05-04 18:20 | 53.49174 | 10.06293 | 38013 ft | 416 kts | 217° |
| 2026-05-04 18:20 | 53.44379 | 10.00881 | 38017 ft | 415 kts | 217° |
| 2026-05-04 18:21 | 53.39582 | 9.95479 | 37991 ft | 415 kts | 217° |
| 2026-05-04 18:21 | 53.34787 | 9.90087 | 37999 ft | 415 kts | 217° |
| 2026-05-04 18:22 | 53.29998 | 9.84718 | 37994 ft | 414 kts | 216° |
| 2026-05-04 18:22 | 53.25208 | 9.79377 | 37999 ft | 413 kts | 216° |
| 2026-05-04 18:23 | 53.20449 | 9.74085 | 37617 ft | 409 kts | 216° |
| 2026-05-04 18:23 | 53.18092 | 9.71467 | 37355 ft | 406 kts | 216° |
| 2026-05-04 18:23 | 53.15747 | 9.68861 | 37073 ft | 405 kts | 216° |
| 2026-05-04 18:24 | 53.13408 | 9.66265 | 36796 ft | 403 kts | 217° |
| 2026-05-04 18:24 | 53.11076 | 9.63680 | 36537 ft | 402 kts | 217° |
| 2026-05-04 18:24 | 53.08751 | 9.61108 | 36277 ft | 401 kts | 217° |
| 2026-05-04 18:24 | 53.06430 | 9.58543 | 36034 ft | 400 kts | 217° |
| 2026-05-04 18:25 | 53.01808 | 9.53452 | 35965 ft | 399 kts | 217° |
| 2026-05-04 18:25 | 52.97181 | 9.48370 | 35963 ft | 399 kts | 217° |
| 2026-05-04 18:26 | 52.92550 | 9.43300 | 35956 ft | 399 kts | 216° |
| 2026-05-04 18:26 | 52.87614 | 9.39003 | 35939 ft | 402 kts | 210° |
| 2026-05-04 18:27 | 52.82613 | 9.34912 | 35954 ft | 401 kts | 210° |
| 2026-05-04 18:27 | 52.77613 | 9.30820 | 35959 ft | 401 kts | 210° |
| 2026-05-04 18:28 | 52.72611 | 9.26725 | 35972 ft | 401 kts | 210° |
| 2026-05-04 18:28 | 52.67608 | 9.22642 | 35686 ft | 399 kts | 210° |
| 2026-05-04 18:29 | 52.65127 | 9.20629 | 35439 ft | 396 kts | 210° |
| 2026-05-04 18:29 | 52.62668 | 9.18640 | 35174 ft | 393 kts | 210° |
| 2026-05-04 18:29 | 52.60227 | 9.16667 | 34933 ft | 390 kts | 210° |
| 2026-05-04 18:29 | 52.57805 | 9.14707 | 34690 ft | 386 kts | 210° |
| 2026-05-04 18:30 | 52.52986 | 9.10806 | 34214 ft | 390 kts | 210° |
| 2026-05-04 18:30 | 52.50536 | 9.08828 | 33972 ft | 393 kts | 210° |
| 2026-05-04 18:30 | 52.48082 | 9.06850 | 33707 ft | 393 kts | 210° |
| 2026-05-04 18:31 | 52.45622 | 9.04869 | 33429 ft | 394 kts | 210° |
| 2026-05-04 18:31 | 52.43160 | 9.02888 | 33159 ft | 395 kts | 210° |
| 2026-05-04 18:31 | 52.40694 | 9.00903 | 32873 ft | 396 kts | 209° |
| 2026-05-04 18:31 | 52.38216 | 8.98911 | 32606 ft | 397 kts | 209° |
| 2026-05-04 18:32 | 52.35726 | 8.96915 | 32341 ft | 399 kts | 209° |
| 2026-05-04 18:32 | 52.33232 | 8.94924 | 32061 ft | 398 kts | 209° |
| 2026-05-04 18:32 | 52.30759 | 8.92956 | 31605 ft | 393 kts | 209° |
| 2026-05-04 18:32 | 52.28343 | 8.91035 | 31093 ft | 389 kts | 209° |
| 2026-05-04 18:33 | 52.25921 | 8.89110 | 30601 ft | 385 kts | 209° |
| 2026-05-04 18:33 | 52.23519 | 8.87201 | 30110 ft | 382 kts | 208° |
| 2026-05-04 18:33 | 52.21137 | 8.85309 | 29562 ft | 379 kts | 208° |
| 2026-05-04 18:33 | 52.18786 | 8.83440 | 29063 ft | 374 kts | 208° |
| 2026-05-04 18:34 | 52.16461 | 8.81593 | 28603 ft | 370 kts | 208° |
| 2026-05-04 18:34 | 52.14155 | 8.79764 | 28126 ft | 367 kts | 208° |
| 2026-05-04 18:34 | 52.12612 | 8.78540 | 27807 ft | 365 kts | 208° |
| 2026-05-04 18:34 | 52.09567 | 8.76128 | 27173 ft | 362 kts | 208° |
| 2026-05-04 18:35 | 52.08067 | 8.74943 | 26863 ft | 361 kts | 208° |
| 2026-05-04 18:35 | 52.05811 | 8.73156 | 26403 ft | 360 kts | 210° |
| 2026-05-04 18:35 | 52.03778 | 8.70799 | 26118 ft | 365 kts | 226° |
| 2026-05-04 18:35 | 52.02288 | 8.67438 | 25867 ft | 371 kts | 244° |
| 2026-05-04 18:36 | 52.01389 | 8.63486 | 25622 ft | 375 kts | 249° |
| 2026-05-04 18:36 | 52.00556 | 8.59474 | 25377 ft | 375 kts | 249° |
| 2026-05-04 18:36 | 51.99727 | 8.55469 | 25131 ft | 375 kts | 249° |
| 2026-05-04 18:36 | 51.98897 | 8.51468 | 24892 ft | 374 kts | 249° |
| 2026-05-04 18:37 | 51.98068 | 8.47476 | 24651 ft | 373 kts | 249° |
| 2026-05-04 18:37 | 51.97239 | 8.43484 | 24401 ft | 374 kts | 249° |
| 2026-05-04 18:37 | 51.96409 | 8.39488 | 24162 ft | 374 kts | 250° |
| 2026-05-04 18:37 | 51.95580 | 8.35499 | 23946 ft | 374 kts | 249° |
| 2026-05-04 18:38 | 51.94741 | 8.31523 | 23603 ft | 371 kts | 249° |
| 2026-05-04 18:38 | 51.93900 | 8.27576 | 23089 ft | 370 kts | 249° |
| 2026-05-04 18:38 | 51.93060 | 8.23645 | 22594 ft | 368 kts | 249° |
| 2026-05-04 18:38 | 51.92224 | 8.19737 | 22097 ft | 366 kts | 249° |
| 2026-05-04 18:39 | 51.91391 | 8.15847 | 21635 ft | 364 kts | 249° |
| 2026-05-04 18:39 | 51.90568 | 8.11974 | 21323 ft | 364 kts | 249° |
| 2026-05-04 18:39 | 51.89745 | 8.08096 | 21015 ft | 364 kts | 249° |
| 2026-05-04 18:39 | 51.88930 | 8.04269 | 20717 ft | 363 kts | 249° |
| 2026-05-04 18:40 | 51.88106 | 8.00413 | 20419 ft | 362 kts | 249° |
| 2026-05-04 18:40 | 51.87285 | 7.96571 | 20114 ft | 361 kts | 249° |
| 2026-05-04 18:40 | 51.86464 | 7.92745 | 19820 ft | 360 kts | 249° |
| 2026-05-04 18:40 | 51.85645 | 7.88941 | 19528 ft | 359 kts | 249° |
| 2026-05-04 18:41 | 51.84826 | 7.85143 | 19239 ft | 358 kts | 249° |
| 2026-05-04 18:41 | 51.84004 | 7.81349 | 18953 ft | 357 kts | 249° |
| 2026-05-04 18:41 | 51.83187 | 7.77570 | 18683 ft | 356 kts | 249° |
| 2026-05-04 18:41 | 51.82370 | 7.73797 | 18405 ft | 354 kts | 248° |
| 2026-05-04 18:42 | 51.81566 | 7.70074 | 18095 ft | 347 kts | 249° |
| 2026-05-04 18:42 | 51.80777 | 7.66426 | 17771 ft | 341 kts | 248° |
| 2026-05-04 18:42 | 51.79999 | 7.62855 | 17613 ft | 331 kts | 248° |
| 2026-05-04 18:42 | 51.79246 | 7.59405 | 17465 ft | 320 kts | 248° |
| 2026-05-04 18:43 | 51.78513 | 7.56067 | 17330 ft | 311 kts | 248° |
| 2026-05-04 18:43 | 51.77800 | 7.52824 | 17197 ft | 302 kts | 248° |
| 2026-05-04 18:43 | 51.77104 | 7.49663 | 17033 ft | 296 kts | 248° |
| 2026-05-04 18:43 | 51.76420 | 7.46561 | 16818 ft | 291 kts | 248° |
| 2026-05-04 18:44 | 51.75741 | 7.43495 | 16516 ft | 290 kts | 248° |
| 2026-05-04 18:44 | 51.75292 | 7.41468 | 16289 ft | 289 kts | 248° |
| 2026-05-04 18:44 | 51.74384 | 7.37378 | 15861 ft | 289 kts | 248° |
| 2026-05-04 18:44 | 51.73716 | 7.34357 | 15533 ft | 282 kts | 248° |
| 2026-05-04 18:45 | 51.73066 | 7.31418 | 15219 ft | 275 kts | 248° |
| 2026-05-04 18:45 | 51.72432 | 7.28554 | 14924 ft | 269 kts | 248° |
| 2026-05-04 18:45 | 51.71799 | 7.25702 | 14607 ft | 271 kts | 248° |
| 2026-05-04 18:45 | 51.71161 | 7.22832 | 14288 ft | 273 kts | 249° |
| 2026-05-04 18:46 | 51.70521 | 7.19952 | 14024 ft | 272 kts | 249° |
| 2026-05-04 18:46 | 51.69871 | 7.17112 | 13971 ft | 270 kts | 248° |
| 2026-05-04 18:46 | 51.69191 | 7.14286 | 13969 ft | 270 kts | 243° |
| 2026-05-04 18:46 | 51.68210 | 7.11732 | 13968 ft | 268 kts | 231° |
| 2026-05-04 18:47 | 51.67066 | 7.09343 | 13613 ft | 271 kts | 231° |
| 2026-05-04 18:47 | 51.65926 | 7.06928 | 13265 ft | 271 kts | 231° |
| 2026-05-04 18:47 | 51.64792 | 7.04512 | 12947 ft | 270 kts | 232° |
| 2026-05-04 18:47 | 51.63666 | 7.02108 | 12631 ft | 269 kts | 232° |
| 2026-05-04 18:48 | 51.62542 | 6.99716 | 12296 ft | 267 kts | 232° |
| 2026-05-04 18:48 | 51.61425 | 6.97341 | 11949 ft | 266 kts | 232° |
| 2026-05-04 18:48 | 51.60319 | 6.94986 | 11716 ft | 261 kts | 232° |
| 2026-05-04 18:48 | 51.59233 | 6.92675 | 11492 ft | 257 kts | 231° |
| 2026-05-04 18:49 | 51.58026 | 6.90607 | 11234 ft | 252 kts | 211° |
| 2026-05-04 18:49 | 51.56395 | 6.89773 | 10945 ft | 248 kts | 180° |
| 2026-05-04 18:49 | 51.54760 | 6.90474 | 10738 ft | 247 kts | 148° |
| 2026-05-04 18:49 | 51.53432 | 6.92272 | 10561 ft | 251 kts | 140° |
| 2026-05-04 18:50 | 51.52074 | 6.94033 | 10341 ft | 250 kts | 144° |
| 2026-05-04 18:50 | 51.50791 | 6.95902 | 10100 ft | 251 kts | 126° |
| 2026-05-04 18:50 | 51.50223 | 6.98525 | 9743 ft | 256 kts | 91° |
| 2026-05-04 18:50 | 51.50721 | 7.01283 | 9215 ft | 267 kts | 58° |
| 2026-05-04 18:51 | 51.51834 | 7.03703 | 8811 ft | 269 kts | 54° |
| 2026-05-04 18:51 | 51.52959 | 7.06057 | 8381 ft | 263 kts | 53° |
| 2026-05-04 18:51 | 51.54063 | 7.08367 | 7949 ft | 258 kts | 54° |
| 2026-05-04 18:51 | 51.55134 | 7.10615 | 7523 ft | 255 kts | 54° |
| 2026-05-04 18:52 | 51.56187 | 7.12949 | 7093 ft | 257 kts | 63° |
| 2026-05-04 18:52 | 51.56631 | 7.15618 | 6694 ft | 250 kts | 94° |
| 2026-05-04 18:52 | 51.56181 | 7.18268 | 6280 ft | 248 kts | 124° |
| 2026-05-04 18:52 | 51.55025 | 7.20270 | 7881 ft | 243 kts | 142° |
| 2026-05-04 18:53 | 51.53711 | 7.21928 | 7451 ft | 239 kts | 149° |
| 2026-05-04 18:53 | 51.52183 | 7.22736 | 7028 ft | 231 kts | 183° |
| 2026-05-04 18:53 | 51.50676 | 7.21907 | 6617 ft | 232 kts | 219° |
| 2026-05-04 18:53 | 51.49615 | 7.19962 | 6189 ft | 231 kts | 232° |
| 2026-05-04 18:54 | 51.48671 | 7.17878 | 5911 ft | 230 kts | 232° |
| 2026-05-04 18:54 | 51.47723 | 7.15825 | 5686 ft | 229 kts | 232° |
| 2026-05-04 18:54 | 51.46771 | 7.13791 | 5463 ft | 227 kts | 232° |
| 2026-05-04 18:54 | 51.45817 | 7.11761 | 5325 ft | 228 kts | 232° |
| 2026-05-04 18:55 | 51.44865 | 7.09734 | 5050 ft | 227 kts | 232° |
| 2026-05-04 18:55 | 51.42967 | 7.05700 | 4447 ft | 226 kts | 232° |
| 2026-05-04 18:55 | 51.42023 | 7.03695 | 4141 ft | 225 kts | 232° |
| 2026-05-04 18:56 | 51.41093 | 7.01720 | 3843 ft | 218 kts | 232° |
| 2026-05-04 18:56 | 51.40197 | 6.99820 | 3560 ft | 209 kts | 232° |
| 2026-05-04 18:56 | 51.39340 | 6.98004 | 3304 ft | 199 kts | 231° |
| 2026-05-04 18:56 | 51.38525 | 6.96279 | 3043 ft | 192 kts | 231° |
| 2026-05-04 18:57 | 51.37743 | 6.94624 | 2773 ft | 181 kts | 231° |
| 2026-05-04 18:57 | 51.36994 | 6.93042 | 2538 ft | 176 kts | 231° |
| 2026-05-04 18:57 | 51.36272 | 6.91515 | 2303 ft | 164 kts | 231° |
| 2026-05-04 18:57 | 51.35633 | 6.90164 | 2104 ft | 147 kts | 231° |
| 2026-05-04 18:58 | 51.35035 | 6.88902 | 1898 ft | 139 kts | 231° |
| 2026-05-04 18:58 | 51.34451 | 6.87671 | 1719 ft | 138 kts | 231° |
| 2026-05-04 18:58 | 51.33873 | 6.86453 | 1531 ft | 136 kts | 229° |
| 2026-05-04 18:58 | 51.33307 | 6.85260 | 1351 ft | 135 kts | 229° |
| 2026-05-04 18:59 | 51.32740 | 6.84066 | 1175 ft | 134 kts | 229° |
| 2026-05-04 18:59 | 51.32169 | 6.82864 | 997 ft | 136 kts | 229° |
| 2026-05-04 18:59 | 51.31595 | 6.81653 | 802 ft | 137 kts | 230° |
| 2026-05-04 18:59 | 51.31026 | 6.80444 | 629 ft | 135 kts | 230° |
| 2026-05-04 19:00 | 51.30457 | 6.79255 | 457 ft | 136 kts | 230° |
| 2026-05-04 19:00 | 51.29893 | 6.78064 | 260 ft | 133 kts | 229° |
| 2026-05-04 19:00 | 51.29339 | 6.76908 | 135 ft | 123 kts | 231° |
| 2026-05-04 19:00 | 51.28928 | 6.76047 | 133 ft | 60 kts | 233° |
| 2026-05-04 19:01 | 51.28732 | 6.75729 | 125 ft | 38 kts | 210° |
| 2026-05-04 19:01 | 51.28513 | 6.75723 | 123 ft | 25 kts | 151° |
| 2026-05-04 19:01 | 51.28459 | 6.75782 | 122 ft | 9 kts | 144° |
| 2026-05-04 19:01 | 51.28450 | 6.75792 | 123 ft | 0 kts | 142° |
| 2026-05-04 19:04 | 51.28426 | 6.75821 | 126 ft | 11 kts | 142° |
| 2026-05-04 19:04 | 51.28401 | 6.75852 | 123 ft | 0 kts | 142° |
| 2026-05-04 19:06 | 51.28395 | 6.75858 | 127 ft | 5 kts | 143° |
| 2026-05-04 19:07 | 51.28337 | 6.75926 | 125 ft | 16 kts | 142° |
| 2026-05-04 19:07 | 51.28265 | 6.75989 | 128 ft | 19 kts | 179° |
| 2026-05-04 19:07 | 51.28093 | 6.75877 | 129 ft | 21 kts | 204° |
| 2026-05-04 19:07 | 51.28000 | 6.75824 | 129 ft | 3 kts | 181° |
| 2026-05-04 19:08 | 51.27994 | 6.75826 | 129 ft | 1 kts | 164° |
| 2026-05-04 19:08 | 51.27994 | 6.75834 | 129 ft | 1 kts | 114° |
| 2026-05-04 19:08 | 51.27995 | 6.75873 | 128 ft | 6 kts | 86° |
| 2026-05-04 19:08 | 51.27995 | 6.75924 | 130 ft | 2 kts | 92° |
| 2026-05-04 19:09 | 51.27995 | 6.75934 | 126 ft | 0 kts | 92° |